createdAt,value
2023-03-08T00:00:34.111Z,10.05
2023-03-08T00:01:12.490Z,9.20
2023-03-08T00:01:47.622Z,10.27
2023-03-08T00:02:23.350Z,9.75
2023-03-08T00:02:58.712Z,10.98
2023-03-08T00:03:33.352Z,10.40
2023-03-08T00:04:07.347Z,10.18
2023-03-08T00:04:40.920Z,10.55
2023-03-08T00:05:17.090Z,10.05
2023-03-08T00:05:51.027Z,9.85
2023-03-08T00:06:25.863Z,10.00
2023-03-08T00:07:01.204Z,9.80
2023-03-08T00:07:35.701Z,10.02
2023-03-08T00:08:10.892Z,11.88
2023-03-08T00:08:46.777Z,10.18
2023-03-08T00:09:21.301Z,10.30
2023-03-08T00:09:57.411Z,9.80
2023-03-08T00:10:31.607Z,9.73
2023-03-08T00:11:06.802Z,10.23
2023-03-08T00:11:42.053Z,10.13
2023-03-08T00:12:15.605Z,10.27
2023-03-08T00:12:48.775Z,10.07
2023-03-08T00:13:24.276Z,9.82
2023-03-08T00:13:58.654Z,10.43
2023-03-08T00:14:32.265Z,10.20
2023-03-08T00:15:08.309Z,9.30
2023-03-08T00:15:42.466Z,10.30
2023-03-08T00:16:17.139Z,10.05
2023-03-08T00:16:52.472Z,9.20
2023-03-08T00:17:27.911Z,11.23
2023-03-08T00:18:03.689Z,9.60
2023-03-08T00:18:40.386Z,10.40
2023-03-08T00:19:14.418Z,10.55
2023-03-08T00:19:48.290Z,10.50
2023-03-08T00:20:23.527Z,11.05
2023-03-08T00:21:00.826Z,10.50
2023-03-08T00:21:35.323Z,9.98
2023-03-08T00:22:10.739Z,9.77
2023-03-08T00:22:44.664Z,10.00
2023-03-08T00:23:18.695Z,9.82
2023-03-08T00:23:54.641Z,9.77
2023-03-08T00:24:28.260Z,10.73
2023-03-08T00:25:02.560Z,10.77
2023-03-08T00:25:37.781Z,9.98
2023-03-08T00:26:12.621Z,10.02
2023-03-08T00:26:47.420Z,11.02
2023-03-08T00:27:23.438Z,10.65
2023-03-08T00:27:56.940Z,11.25
2023-03-08T00:28:31.021Z,9.70
2023-03-08T00:29:06.670Z,9.82
2023-03-08T00:29:40.921Z,10.57
2023-03-08T00:30:15.279Z,10.15
2023-03-08T00:30:56.162Z,10.73
2023-03-08T00:31:31.712Z,9.88
2023-03-08T00:32:05.873Z,10.50
2023-03-08T00:32:41.184Z,10.52
2023-03-08T00:33:15.842Z,10.32
2023-03-08T00:33:54.178Z,10.85
2023-03-08T00:34:28.314Z,10.52
2023-03-08T00:35:03.429Z,10.90
2023-03-08T00:35:37.557Z,10.70
2023-03-08T00:36:16.195Z,10.52
2023-03-08T00:36:51.310Z,10.10
2023-03-08T00:37:26.189Z,10.95
2023-03-08T00:38:00.480Z,11.13
2023-03-08T00:38:36.404Z,10.18
2023-03-08T00:39:10.799Z,10.77
2023-03-08T00:39:45.498Z,10.30
2023-03-08T00:40:19.904Z,11.23
2023-03-08T00:40:54.201Z,10.48
2023-03-08T00:41:28.296Z,10.70
2023-03-08T00:42:01.989Z,10.95
2023-03-08T00:42:35.618Z,10.30
2023-03-08T00:43:10.052Z,10.48
2023-03-08T00:43:44.814Z,10.77
2023-03-08T00:44:17.846Z,12.02
2023-03-08T00:44:52.072Z,11.25
2023-03-08T00:45:27.254Z,11.10
2023-03-08T00:46:01.440Z,12.73
2023-03-08T00:46:35.113Z,11.18
2023-03-08T00:47:10.769Z,11.52
2023-03-08T00:47:46.434Z,11.52
2023-03-08T00:48:20.670Z,11.73
2023-03-08T00:48:56.295Z,11.88
2023-03-08T00:49:30.744Z,11.65
2023-03-08T00:50:06.104Z,11.70
2023-03-08T00:50:41.875Z,11.40
2023-03-08T00:51:16.291Z,11.27
2023-03-08T00:51:50.401Z,12.02
2023-03-08T00:52:25.042Z,11.02
2023-03-08T00:52:59.672Z,11.30
2023-03-08T00:53:33.524Z,11.60
2023-03-08T00:54:09.117Z,12.07
2023-03-08T00:54:42.674Z,11.13
2023-03-08T00:55:16.428Z,11.45
2023-03-08T00:55:52.044Z,12.48
2023-03-08T00:56:27.512Z,11.10
2023-03-08T00:57:01.340Z,11.43
2023-03-08T00:57:36.004Z,11.65
2023-03-08T00:58:09.644Z,12.38
2023-03-08T00:58:44.128Z,11.18
2023-03-08T00:59:18.595Z,12.55
2023-03-08T00:59:52.141Z,11.93
2023-03-08T01:00:26.895Z,11.90
2023-03-08T01:01:01.693Z,11.32
2023-03-08T01:01:36.573Z,11.55
2023-03-08T01:02:10.771Z,12.20
2023-03-08T01:02:47.502Z,11.95
2023-03-08T01:03:22.725Z,11.63
2023-03-08T01:03:56.415Z,11.50
2023-03-08T01:04:30.610Z,12.25
2023-03-08T01:05:06.098Z,12.07
2023-03-08T01:05:43.419Z,12.00
2023-03-08T01:06:20.014Z,12.30
2023-03-08T01:06:53.859Z,11.10
2023-03-08T01:07:28.689Z,10.90
2023-03-08T01:08:05.707Z,10.98
2023-03-08T01:08:42.268Z,11.05
2023-03-08T01:09:17.086Z,11.90
2023-03-08T01:09:56.423Z,11.27
2023-03-08T01:10:30.130Z,12.07
2023-03-08T01:11:04.419Z,13.13
2023-03-08T01:11:39.219Z,12.80
2023-03-08T01:12:13.836Z,12.40
2023-03-08T01:12:48.543Z,13.25
2023-03-08T01:13:23.346Z,10.73
2023-03-08T01:13:57.692Z,11.75
2023-03-08T01:14:31.728Z,12.13
2023-03-08T01:15:08.132Z,13.05
2023-03-08T01:15:43.213Z,12.88
2023-03-08T01:16:17.651Z,12.80
2023-03-08T01:16:53.443Z,12.30
2023-03-08T01:17:27.092Z,12.10
2023-03-08T01:18:01.520Z,12.15
2023-03-08T01:18:36.739Z,12.63
2023-03-08T01:19:11.122Z,12.15
2023-03-08T01:19:44.131Z,11.63
2023-03-08T01:20:19.478Z,11.40
2023-03-08T01:20:56.425Z,11.23
2023-03-08T01:21:30.397Z,11.32
2023-03-08T01:22:06.389Z,11.32
2023-03-08T01:22:40.574Z,13.80
2023-03-08T01:23:13.640Z,12.68
2023-03-08T01:23:48.196Z,13.23
2023-03-08T01:24:22.153Z,13.07
2023-03-08T01:24:56.219Z,13.48
2023-03-08T01:25:29.855Z,13.95
2023-03-08T01:26:06.767Z,12.00
2023-03-08T01:26:41.163Z,13.40
2023-03-08T01:27:18.135Z,14.05
2023-03-08T01:27:52.352Z,13.02
2023-03-08T01:28:26.534Z,12.63
2023-03-08T01:29:00.744Z,13.20
2023-03-08T01:29:35.277Z,12.75
2023-03-08T01:30:09.802Z,12.85
2023-03-08T01:30:45.080Z,13.18
2023-03-08T01:31:20.427Z,12.13
2023-03-08T01:31:54.589Z,23.15
2023-03-08T01:32:29.467Z,17.98
2023-03-08T01:33:06.588Z,16.95
2023-03-08T01:33:39.591Z,16.90
2023-03-08T01:34:15.089Z,14.18
2023-03-08T01:34:48.689Z,24.05
2023-03-08T01:35:22.751Z,19.58
2023-03-08T01:35:57.924Z,14.32
2023-03-08T01:36:31.503Z,12.00
2023-03-08T01:37:06.823Z,12.18
2023-03-08T01:37:41.678Z,12.57
2023-03-08T01:38:37.095Z,10.50
2023-03-08T01:39:10.770Z,10.40
2023-03-08T01:39:45.896Z,10.85
2023-03-08T01:40:20.822Z,9.93
2023-03-08T01:40:57.774Z,10.25
2023-03-08T01:41:33.547Z,10.55
2023-03-08T01:42:09.980Z,11.68
2023-03-08T01:42:43.890Z,11.00
2023-03-08T01:43:27.236Z,12.05
2023-03-08T01:44:00.402Z,11.23
2023-03-08T01:44:49.499Z,11.70
2023-03-08T01:45:41.260Z,11.60
2023-03-08T01:46:24.692Z,11.52
2023-03-08T01:47:36.439Z,11.70
2023-03-08T01:48:24.134Z,11.23
2023-03-08T01:49:10.508Z,11.27
2023-03-08T01:49:45.369Z,11.27
2023-03-08T01:50:19.653Z,11.77
2023-03-08T01:50:54.431Z,11.95
2023-03-08T01:51:31.404Z,12.55
2023-03-08T01:52:09.034Z,10.73
2023-03-08T01:52:47.355Z,11.45
2023-03-08T01:53:26.100Z,11.98
2023-03-08T01:54:02.425Z,10.73
2023-03-08T01:54:38.763Z,10.45
2023-03-08T01:55:14.832Z,11.10
2023-03-08T01:55:48.977Z,11.93
2023-03-08T01:56:23.881Z,12.23
2023-03-08T01:57:04.335Z,12.23
2023-03-08T01:57:40.452Z,11.63
2023-03-08T01:58:14.254Z,10.27
2023-03-08T01:58:50.409Z,11.68
2023-03-08T01:59:24.599Z,11.15
2023-03-08T02:00:00.708Z,10.98
2023-03-08T02:00:37.458Z,11.18
2023-03-08T02:01:11.388Z,12.02
2023-03-08T02:01:47.204Z,11.18
2023-03-08T02:02:23.250Z,11.07
2023-03-08T02:02:59.881Z,11.20
2023-03-08T02:03:36.193Z,11.00
2023-03-08T02:04:12.271Z,10.75
2023-03-08T02:04:45.541Z,10.23
2023-03-08T02:05:20.608Z,11.48
2023-03-08T02:05:59.045Z,11.45
2023-03-08T02:06:33.103Z,11.23
2023-03-08T02:07:07.841Z,11.68
2023-03-08T02:07:42.291Z,11.40
2023-03-08T02:08:16.494Z,11.70
2023-03-08T02:08:52.952Z,10.98
2023-03-08T02:09:26.638Z,11.57
2023-03-08T02:10:00.905Z,11.63
2023-03-08T02:10:36.057Z,11.73
2023-03-08T02:11:29.914Z,11.13
2023-03-08T02:12:07.141Z,10.52
2023-03-08T02:12:41.337Z,10.90
2023-03-08T02:13:15.419Z,10.20
2023-03-08T02:13:52.471Z,11.40
2023-03-08T02:14:27.596Z,10.48
2023-03-08T02:15:01.535Z,10.43
2023-03-08T02:15:37.124Z,12.32
2023-03-08T02:16:13.993Z,10.63
2023-03-08T02:16:49.327Z,9.98
2023-03-08T02:17:23.167Z,10.68
2023-03-08T02:17:57.435Z,10.13
2023-03-08T02:18:32.318Z,11.20
2023-03-08T02:19:09.188Z,10.85
2023-03-08T02:19:46.015Z,10.40
2023-03-08T02:20:21.924Z,10.55
2023-03-08T02:20:57.425Z,10.88
2023-03-08T02:21:33.019Z,10.55
2023-03-08T02:22:10.045Z,10.57
2023-03-08T02:22:45.227Z,10.85
2023-03-08T02:23:19.733Z,10.38
2023-03-08T02:23:55.336Z,11.20
2023-03-08T02:24:30.078Z,10.77
2023-03-08T02:25:03.745Z,11.38
2023-03-08T02:25:38.780Z,11.15
2023-03-08T02:26:16.384Z,11.00
2023-03-08T02:26:51.377Z,10.98
2023-03-08T02:27:26.262Z,11.18
2023-03-08T02:28:01.117Z,10.10
2023-03-08T02:28:36.584Z,10.25
2023-03-08T02:29:10.787Z,10.85
2023-03-08T02:29:45.528Z,10.98
2023-03-08T02:30:25.055Z,10.52
2023-03-08T02:31:35.283Z,9.45
2023-03-08T02:32:11.490Z,11.10
2023-03-08T02:32:46.772Z,11.32
2023-03-08T02:33:20.674Z,10.70
2023-03-08T02:33:55.383Z,10.27
2023-03-08T02:34:34.314Z,11.32
2023-03-08T02:35:09.361Z,9.95
2023-03-08T02:35:44.832Z,11.93
2023-03-08T02:36:20.098Z,11.00
2023-03-08T02:36:53.675Z,10.35
2023-03-08T02:37:27.761Z,10.57
2023-03-08T02:38:04.376Z,10.77
2023-03-08T02:38:37.801Z,10.60
2023-03-08T02:39:11.774Z,11.63
2023-03-08T02:39:46.944Z,10.88
2023-03-08T02:40:21.513Z,10.27
2023-03-08T02:40:54.650Z,10.15
2023-03-08T02:41:29.724Z,9.82
2023-03-08T02:42:03.823Z,10.45
2023-03-08T02:42:37.422Z,10.68
2023-03-08T02:43:13.236Z,10.60
2023-03-08T02:43:47.332Z,11.43
2023-03-08T02:44:21.900Z,10.95
2023-03-08T02:44:56.505Z,10.00
2023-03-08T02:45:30.169Z,10.68
2023-03-08T02:46:06.524Z,10.65
2023-03-08T02:46:42.585Z,11.18
2023-03-08T02:47:17.532Z,10.68
2023-03-08T02:47:51.755Z,10.60
2023-03-08T02:48:26.320Z,10.30
2023-03-08T02:49:00.404Z,10.25
2023-03-08T02:49:34.312Z,10.73
2023-03-08T02:50:11.094Z,10.45
2023-03-08T02:50:45.061Z,11.00
2023-03-08T02:51:21.153Z,10.18
2023-03-08T02:51:54.736Z,11.85
2023-03-08T02:52:28.663Z,11.20
2023-03-08T02:53:05.524Z,11.05
2023-03-08T02:53:39.662Z,11.15
2023-03-08T02:54:12.772Z,10.88
2023-03-08T02:54:47.706Z,10.68
2023-03-08T02:55:20.827Z,10.57
2023-03-08T02:55:55.720Z,10.95
2023-03-08T02:56:30.819Z,11.73
2023-03-08T02:57:04.685Z,10.95
2023-03-08T02:57:38.320Z,10.98
2023-03-08T02:58:13.122Z,11.35
2023-03-08T02:58:46.517Z,10.90
2023-03-08T02:59:21.639Z,10.18
2023-03-08T02:59:59.943Z,10.65
2023-03-08T03:00:37.764Z,10.63
2023-03-08T03:01:14.485Z,10.30
2023-03-08T03:01:49.877Z,10.57
2023-03-08T03:02:24.187Z,11.27
2023-03-08T03:02:59.582Z,10.45
2023-03-08T03:03:35.235Z,10.63
2023-03-08T03:04:10.972Z,11.48
2023-03-08T03:04:45.038Z,11.70
2023-03-08T03:05:21.495Z,11.25
2023-03-08T03:05:55.590Z,10.43
2023-03-08T03:06:36.992Z,11.05
2023-03-08T03:07:11.227Z,11.40
2023-03-08T03:07:45.604Z,11.40
2023-03-08T03:08:25.639Z,10.82
2023-03-08T03:09:01.659Z,10.57
2023-03-08T03:09:36.473Z,11.20
2023-03-08T03:10:12.650Z,10.65
2023-03-08T03:10:47.741Z,10.48
2023-03-08T03:11:23.663Z,10.43
2023-03-08T03:11:57.695Z,10.73
2023-03-08T03:12:31.791Z,11.55
2023-03-08T03:13:06.111Z,10.30
2023-03-08T03:13:40.724Z,11.23
2023-03-08T03:14:15.238Z,11.18
2023-03-08T03:14:51.636Z,10.07
2023-03-08T03:15:25.188Z,10.40
2023-03-08T03:16:07.689Z,10.30
2023-03-08T03:16:42.936Z,10.38
2023-03-08T03:17:18.183Z,10.75
2023-03-08T03:17:51.920Z,10.30
2023-03-08T03:18:26.407Z,10.82
2023-03-08T03:19:00.813Z,10.93
2023-03-08T03:19:34.850Z,10.82
2023-03-08T03:20:11.153Z,10.60
2023-03-08T03:20:45.303Z,10.60
2023-03-08T03:21:20.703Z,9.90
2023-03-08T03:21:53.671Z,10.13
2023-03-08T03:22:28.740Z,10.45
2023-03-08T03:23:03.848Z,10.18
2023-03-08T03:23:49.385Z,9.45
2023-03-08T03:24:24.926Z,9.75
2023-03-08T03:25:03.673Z,9.15
2023-03-08T03:25:38.346Z,10.80
2023-03-08T03:26:19.575Z,10.70
2023-03-08T03:26:57.406Z,10.38
2023-03-08T03:27:33.940Z,10.63
2023-03-08T03:28:08.231Z,10.18
2023-03-08T03:28:44.575Z,9.52
2023-03-08T03:29:19.151Z,9.65
2023-03-08T03:29:59.518Z,10.40
2023-03-08T03:30:34.285Z,10.52
2023-03-08T03:31:09.127Z,9.85
2023-03-08T03:31:43.654Z,10.15
2023-03-08T03:32:19.046Z,11.07
2023-03-08T03:32:53.338Z,10.23
2023-03-08T03:33:32.924Z,10.25
2023-03-08T03:34:07.358Z,9.45
2023-03-08T03:34:41.911Z,9.95
2023-03-08T03:35:16.148Z,10.93
2023-03-08T03:35:51.260Z,10.68
2023-03-08T03:36:26.201Z,10.88
2023-03-08T03:37:00.957Z,10.95
2023-03-08T03:37:35.145Z,11.15
2023-03-08T03:38:08.853Z,10.23
2023-03-08T03:38:44.719Z,10.85
2023-03-08T03:39:20.249Z,11.23
2023-03-08T03:39:55.353Z,11.13
2023-03-08T03:40:32.145Z,10.43
2023-03-08T03:41:09.875Z,11.30
2023-03-08T03:41:44.798Z,10.88
2023-03-08T03:42:22.141Z,11.23
2023-03-08T03:43:09.096Z,10.88
2023-03-08T03:43:44.603Z,10.43
2023-03-08T03:44:18.724Z,12.43
2023-03-08T03:44:55.734Z,11.85
2023-03-08T03:45:30.143Z,10.55
2023-03-08T03:46:05.355Z,11.07
2023-03-08T03:46:39.436Z,11.02
2023-03-08T03:47:19.082Z,11.73
2023-03-08T03:47:54.037Z,11.75
2023-03-08T03:48:28.106Z,11.07
2023-03-08T03:49:03.039Z,11.50
2023-03-08T03:49:42.716Z,11.23
2023-03-08T03:50:17.487Z,10.07
2023-03-08T03:51:02.255Z,11.30
2023-03-08T03:51:36.713Z,10.18
2023-03-08T03:52:18.004Z,10.52
2023-03-08T03:53:00.652Z,10.43
2023-03-08T03:53:36.995Z,10.10
2023-03-08T03:54:11.507Z,10.32
2023-03-08T03:54:49.936Z,11.63
2023-03-08T03:55:23.814Z,10.15
2023-03-08T03:56:03.094Z,12.18
2023-03-08T03:56:38.633Z,10.60
2023-03-08T03:57:13.570Z,10.70
2023-03-08T03:57:50.850Z,10.55
2023-03-08T03:58:26.370Z,11.27
2023-03-08T03:58:59.699Z,11.65
2023-03-08T03:59:35.541Z,11.45
2023-03-08T04:00:10.545Z,12.57
2023-03-08T04:00:47.370Z,10.73
2023-03-08T04:01:31.834Z,11.13
2023-03-08T04:02:31.873Z,9.90
2023-03-08T04:03:08.776Z,11.43
2023-03-08T04:03:44.649Z,10.88
2023-03-08T04:04:18.390Z,11.25
2023-03-08T04:04:55.442Z,10.88
2023-03-08T04:05:33.392Z,11.32
2023-03-08T04:06:09.244Z,11.18
2023-03-08T04:06:44.919Z,11.23
2023-03-08T04:07:22.204Z,10.70
2023-03-08T04:08:04.218Z,11.32
2023-03-08T04:08:42.843Z,10.77
2023-03-08T04:09:21.119Z,11.00
2023-03-08T04:10:06.282Z,12.88
2023-03-08T04:10:41.549Z,12.15
2023-03-08T04:11:16.991Z,10.90
2023-03-08T04:11:52.288Z,11.30
2023-03-08T04:12:27.902Z,10.18
2023-03-08T04:13:02.584Z,10.60
2023-03-08T04:13:37.228Z,11.40
2023-03-08T04:14:11.499Z,10.55
2023-03-08T04:14:45.979Z,11.52
2023-03-08T04:15:23.482Z,10.45
2023-03-08T04:15:59.350Z,10.82
2023-03-08T04:16:35.033Z,11.57
2023-03-08T04:17:13.573Z,11.88
2023-03-08T04:17:55.574Z,10.75
2023-03-08T04:18:32.197Z,10.98
2023-03-08T04:19:08.508Z,10.93
2023-03-08T04:19:42.240Z,11.07
2023-03-08T04:20:18.013Z,10.95
2023-03-08T04:21:00.590Z,10.38
2023-03-08T04:21:35.106Z,11.35
2023-03-08T04:22:09.889Z,11.13
2023-03-08T04:23:11.409Z,11.10
2023-03-08T04:23:49.080Z,11.13
2023-03-08T04:24:23.331Z,11.60
2023-03-08T04:25:01.381Z,10.88
2023-03-08T04:25:51.565Z,11.27
2023-03-08T04:26:27.804Z,11.68
2023-03-08T04:27:01.264Z,11.38
2023-03-08T04:27:35.806Z,11.63
2023-03-08T04:28:11.140Z,10.73
2023-03-08T04:28:44.944Z,11.85
2023-03-08T04:29:18.459Z,10.57
2023-03-08T04:29:54.522Z,11.77
2023-03-08T04:30:31.211Z,9.80
2023-03-08T04:31:13.345Z,10.85
2023-03-08T04:31:47.643Z,7.93
2023-03-08T04:32:24.537Z,10.23
2023-03-08T04:33:04.826Z,10.52
2023-03-08T04:33:47.192Z,11.43
2023-03-08T04:34:22.160Z,10.50
2023-03-08T04:34:57.568Z,11.13
2023-03-08T04:35:34.236Z,11.18
2023-03-08T04:36:12.096Z,11.27
2023-03-08T04:36:47.761Z,11.30
2023-03-08T04:37:21.705Z,12.05
2023-03-08T04:38:00.979Z,12.68
2023-03-08T04:38:36.896Z,11.73
2023-03-08T04:39:11.530Z,11.68
2023-03-08T04:39:46.477Z,12.85
2023-03-08T04:40:21.669Z,11.77
2023-03-08T04:41:06.870Z,11.10
2023-03-08T04:41:52.898Z,12.63
2023-03-08T04:42:34.983Z,12.13
2023-03-08T04:43:09.142Z,12.40
2023-03-08T04:43:48.541Z,11.02
2023-03-08T04:44:26.126Z,11.45
2023-03-08T04:45:00.151Z,13.02
2023-03-08T04:45:35.058Z,11.50
2023-03-08T04:46:13.302Z,12.85
2023-03-08T04:46:49.213Z,11.80
2023-03-08T04:47:30.405Z,12.07
2023-03-08T04:48:04.190Z,12.68
2023-03-08T04:48:40.655Z,12.23
2023-03-08T04:49:15.980Z,11.45
2023-03-08T04:49:55.374Z,11.75
2023-03-08T04:50:30.116Z,13.68
2023-03-08T04:51:05.229Z,13.45
2023-03-08T04:51:40.499Z,12.82
2023-03-08T04:52:16.630Z,11.82
2023-03-08T04:52:50.537Z,12.10
2023-03-08T04:53:25.576Z,12.95
2023-03-08T04:53:59.308Z,13.43
2023-03-08T04:54:34.059Z,12.55
2023-03-08T04:55:11.877Z,12.65
2023-03-08T04:55:45.301Z,13.32
2023-03-08T04:56:21.234Z,13.05
2023-03-08T04:56:56.408Z,12.35
2023-03-08T04:57:32.725Z,11.60
2023-03-08T04:58:08.151Z,11.82
2023-03-08T04:58:42.537Z,13.60
2023-03-08T04:59:16.922Z,13.40
2023-03-08T04:59:52.832Z,13.25
2023-03-08T05:00:27.441Z,12.98
2023-03-08T05:01:01.729Z,12.82
2023-03-08T05:01:37.152Z,12.68
2023-03-08T05:02:11.323Z,13.65
2023-03-08T05:02:47.273Z,14.13
2023-03-08T05:03:25.886Z,13.18
2023-03-08T05:04:00.259Z,13.18
2023-03-08T05:04:41.580Z,14.85
2023-03-08T05:05:16.177Z,13.35
2023-03-08T05:05:53.183Z,34.90
2023-03-08T05:06:28.079Z,14.63
2023-03-08T05:07:03.743Z,14.25
2023-03-08T05:07:41.506Z,13.48
2023-03-08T05:08:15.870Z,12.55
2023-03-08T05:08:51.438Z,13.40
2023-03-08T05:09:24.599Z,12.40
2023-03-08T05:09:59.954Z,13.07
2023-03-08T05:10:34.924Z,12.05
2023-03-08T05:11:08.049Z,14.30
2023-03-08T05:11:45.930Z,11.70
2023-03-08T05:12:22.006Z,12.10
2023-03-08T05:12:59.347Z,12.82
2023-03-08T05:13:33.560Z,12.15
2023-03-08T05:14:09.237Z,11.82
2023-03-08T05:14:42.362Z,12.27
2023-03-08T05:15:17.271Z,11.85
2023-03-08T05:15:52.484Z,12.32
2023-03-08T05:16:27.290Z,12.80
2023-03-08T05:17:02.510Z,11.10
2023-03-08T05:17:39.109Z,11.95
2023-03-08T05:18:14.337Z,11.35
2023-03-08T05:18:48.486Z,11.75
2023-03-08T05:19:24.768Z,12.23
2023-03-08T05:20:01.261Z,11.10
2023-03-08T05:20:41.561Z,12.25
2023-03-08T05:21:17.462Z,12.70
2023-03-08T05:21:53.240Z,10.73
2023-03-08T05:22:27.869Z,11.10
2023-03-08T05:23:05.671Z,12.45
2023-03-08T05:23:46.253Z,12.32
2023-03-08T05:24:23.202Z,13.15
2023-03-08T05:24:57.514Z,13.27
2023-03-08T05:25:32.357Z,12.23
2023-03-08T05:26:08.712Z,11.15
2023-03-08T05:26:42.899Z,10.48
2023-03-08T05:27:22.102Z,11.45
2023-03-08T05:27:58.058Z,12.27
2023-03-08T05:28:33.167Z,10.57
2023-03-08T05:29:08.590Z,12.50
2023-03-08T05:29:44.116Z,11.45
2023-03-08T05:30:18.448Z,10.90
2023-03-08T05:30:53.732Z,10.77
2023-03-08T05:31:28.206Z,11.00
2023-03-08T05:32:04.962Z,11.73
2023-03-08T05:32:42.280Z,11.90
2023-03-08T05:33:16.511Z,11.95
2023-03-08T05:33:52.170Z,12.18
2023-03-08T05:34:33.614Z,11.20
2023-03-08T05:35:09.409Z,11.55
2023-03-08T05:35:45.706Z,12.27
2023-03-08T05:36:20.696Z,11.88
2023-03-08T05:36:57.552Z,11.32
2023-03-08T05:37:32.868Z,10.60
2023-03-08T05:38:10.158Z,10.77
2023-03-08T05:38:44.880Z,11.07
2023-03-08T05:39:18.930Z,11.75
2023-03-08T05:40:01.724Z,10.55
2023-03-08T05:40:39.269Z,11.40
2023-03-08T05:41:15.705Z,10.18
2023-03-08T05:41:54.468Z,9.57
2023-03-08T05:42:35.810Z,9.75
2023-03-08T05:43:10.829Z,10.90
2023-03-08T05:43:44.957Z,10.75
2023-03-08T05:44:19.018Z,10.63
2023-03-08T05:44:54.345Z,10.30
2023-03-08T05:45:34.361Z,10.70
2023-03-08T05:46:10.404Z,10.32
2023-03-08T05:46:45.487Z,9.95
2023-03-08T05:47:19.306Z,10.75
2023-03-08T05:47:53.817Z,9.68
2023-03-08T05:48:29.924Z,10.60
2023-03-08T05:49:03.896Z,10.23
2023-03-08T05:49:41.543Z,9.77
2023-03-08T05:50:16.555Z,10.35
2023-03-08T05:50:51.469Z,9.82
2023-03-08T05:51:27.545Z,10.48
2023-03-08T05:52:01.693Z,10.18
2023-03-08T05:52:36.739Z,11.05
2023-03-08T05:53:12.329Z,10.85
2023-03-08T05:53:47.240Z,10.27
2023-03-08T05:54:23.424Z,11.57
2023-03-08T05:55:01.528Z,10.77
2023-03-08T05:55:35.990Z,10.45
2023-03-08T05:56:11.593Z,10.52
2023-03-08T05:56:49.703Z,11.15
2023-03-08T05:57:32.835Z,10.07
2023-03-08T05:58:07.510Z,10.10
2023-03-08T05:58:43.712Z,11.30
2023-03-08T05:59:18.985Z,10.27
2023-03-08T05:59:53.692Z,9.88
2023-03-08T06:00:31.962Z,9.88
2023-03-08T06:01:16.847Z,8.50
2023-03-08T06:01:52.674Z,9.95
2023-03-08T06:02:49.942Z,8.40
2023-03-08T06:03:25.185Z,9.45
2023-03-08T06:03:59.157Z,10.00
2023-03-08T06:04:38.871Z,9.07
2023-03-08T06:05:13.310Z,8.98
2023-03-08T06:05:48.148Z,9.13
2023-03-08T06:06:23.587Z,9.48
2023-03-08T06:06:57.738Z,10.32
2023-03-08T06:07:37.410Z,8.95
2023-03-08T06:08:17.201Z,144.10
2023-03-08T06:08:52.557Z,141.32
2023-03-08T06:09:25.575Z,240.05
2023-03-08T06:09:59.978Z,344.02
2023-03-08T06:10:35.078Z,80.82
2023-03-08T06:11:09.538Z,22.98
2023-03-08T06:11:45.262Z,18.48
2023-03-08T06:12:19.147Z,12.48
2023-03-08T06:12:57.151Z,12.07
2023-03-08T06:13:33.647Z,9.65
2023-03-08T06:14:08.251Z,10.02
2023-03-08T06:14:42.575Z,9.13
2023-03-08T06:15:19.022Z,10.25
2023-03-08T06:15:55.918Z,10.13
2023-03-08T06:16:31.233Z,9.80
2023-03-08T06:17:06.274Z,9.13
2023-03-08T06:17:43.725Z,9.23
2023-03-08T06:18:21.500Z,9.07
2023-03-08T06:18:55.195Z,9.00
2023-03-08T06:19:29.075Z,8.70
2023-03-08T06:20:06.256Z,8.30
2023-03-08T06:20:42.822Z,8.77
2023-03-08T06:21:18.384Z,9.32
2023-03-08T06:21:56.281Z,9.25
2023-03-08T06:22:30.770Z,8.27
2023-03-08T06:23:07.276Z,8.45
2023-03-08T06:23:41.466Z,7.45
2023-03-08T06:24:17.454Z,8.48
2023-03-08T06:24:51.508Z,8.75
2023-03-08T06:25:34.134Z,9.15
2023-03-08T06:26:09.257Z,8.23
2023-03-08T06:26:44.956Z,8.57
2023-03-08T06:27:20.884Z,8.35
2023-03-08T06:27:57.855Z,8.57
2023-03-08T06:28:46.776Z,36.42
2023-03-08T06:29:21.642Z,10.60
2023-03-08T06:29:56.217Z,8.25
2023-03-08T06:30:31.672Z,8.82
2023-03-08T06:31:05.576Z,8.35
2023-03-08T06:31:42.344Z,8.25
2023-03-08T06:32:18.072Z,8.00
2023-03-08T06:32:52.773Z,8.13
2023-03-08T06:33:29.337Z,8.20
2023-03-08T06:34:04.342Z,9.25
2023-03-08T06:34:38.916Z,7.60
2023-03-08T06:35:13.902Z,8.85
2023-03-08T06:35:58.073Z,8.27
2023-03-08T06:36:37.023Z,8.43
2023-03-08T06:37:10.346Z,8.55
2023-03-08T06:37:44.249Z,8.82
2023-03-08T06:38:19.184Z,8.77
2023-03-08T06:38:53.573Z,8.25
2023-03-08T06:39:27.732Z,8.50
2023-03-08T06:40:04.011Z,9.35
2023-03-08T06:40:38.020Z,8.32
2023-03-08T06:41:12.813Z,8.55
2023-03-08T06:41:48.729Z,8.98
2023-03-08T06:42:34.488Z,8.45
2023-03-08T06:43:14.949Z,8.45
2023-03-08T06:43:50.842Z,8.55
2023-03-08T06:44:25.259Z,8.60
2023-03-08T06:45:00.658Z,8.70
2023-03-08T06:45:35.515Z,9.27
2023-03-08T06:46:09.683Z,8.55
2023-03-08T06:46:45.590Z,8.35
2023-03-08T06:47:20.352Z,8.73
2023-03-08T06:47:53.991Z,7.78
2023-03-08T06:48:29.532Z,7.97
2023-03-08T06:49:04.946Z,8.90
2023-03-08T06:49:42.102Z,7.85
2023-03-08T06:50:16.777Z,7.03
2023-03-08T06:50:53.058Z,6.97
2023-03-08T06:51:28.330Z,8.13
2023-03-08T06:52:01.883Z,7.22
2023-03-08T06:52:38.372Z,7.50
2023-03-08T06:53:16.057Z,7.85
2023-03-08T06:54:03.736Z,6.63
2023-03-08T06:54:39.425Z,7.25
2023-03-08T06:55:13.529Z,6.90
2023-03-08T06:55:47.437Z,8.30
2023-03-08T06:56:22.654Z,7.03
2023-03-08T06:56:56.718Z,7.88
2023-03-08T06:57:31.167Z,7.35
2023-03-08T06:58:06.983Z,7.75
2023-03-08T06:58:41.206Z,8.25
2023-03-08T06:59:16.682Z,8.90
2023-03-08T06:59:52.553Z,8.75
2023-03-08T07:00:27.177Z,9.10
2023-03-08T07:01:01.859Z,9.45
2023-03-08T07:01:37.835Z,10.65
2023-03-08T07:02:11.650Z,10.13
2023-03-08T07:02:45.360Z,11.23
2023-03-08T07:03:21.130Z,11.75
2023-03-08T07:03:55.741Z,11.35
2023-03-08T07:04:31.961Z,10.80
2023-03-08T07:05:06.741Z,10.98
2023-03-08T07:05:41.043Z,12.23
2023-03-08T07:06:16.706Z,11.30
2023-03-08T07:06:50.948Z,12.18
2023-03-08T07:07:27.230Z,11.50
2023-03-08T07:08:00.771Z,11.00
2023-03-08T07:08:36.833Z,9.23
2023-03-08T07:09:11.543Z,9.65
2023-03-08T07:09:45.709Z,9.32
2023-03-08T07:10:24.885Z,8.15
2023-03-08T07:10:58.611Z,7.50
2023-03-08T07:11:35.120Z,6.70
2023-03-08T07:12:08.840Z,7.68
2023-03-08T07:12:47.407Z,7.30
2023-03-08T07:13:24.206Z,7.53
2023-03-08T07:14:00.368Z,7.05
2023-03-08T07:14:35.405Z,7.40
2023-03-08T07:15:08.986Z,7.25
2023-03-08T07:15:44.443Z,7.07
2023-03-08T07:16:17.712Z,7.82
2023-03-08T07:16:53.510Z,7.78
2023-03-08T07:17:28.390Z,6.68
2023-03-08T07:18:03.752Z,6.50
2023-03-08T07:18:39.291Z,6.47
2023-03-08T07:19:13.947Z,7.05
2023-03-08T07:19:48.790Z,5.97
2023-03-08T07:20:24.724Z,6.07
2023-03-08T07:20:58.721Z,5.88
2023-03-08T07:21:33.347Z,6.60
2023-03-08T07:22:08.857Z,6.15
2023-03-08T07:22:42.163Z,7.13
2023-03-08T07:23:15.981Z,6.20
2023-03-08T07:23:53.225Z,6.30
2023-03-08T07:24:26.939Z,6.30
2023-03-08T07:25:02.521Z,7.07
2023-03-08T07:25:39.781Z,6.90
2023-03-08T07:26:16.102Z,6.82
2023-03-08T07:26:52.897Z,7.05
2023-03-08T07:27:27.081Z,6.63
2023-03-08T07:28:02.884Z,7.57
2023-03-08T07:28:38.865Z,6.35
2023-03-08T07:29:13.668Z,6.85
2023-03-08T07:29:49.177Z,6.47
2023-03-08T07:30:25.748Z,6.90
2023-03-08T07:31:00.518Z,5.65
2023-03-08T07:31:36.878Z,5.95
2023-03-08T07:32:12.161Z,5.63
2023-03-08T07:32:47.197Z,6.00
2023-03-08T07:33:21.936Z,6.65
2023-03-08T07:33:58.311Z,6.45
2023-03-08T07:34:32.523Z,5.68
2023-03-08T07:35:08.243Z,5.28
2023-03-08T07:35:43.395Z,5.07
2023-03-08T07:36:17.812Z,4.15
2023-03-08T07:36:51.402Z,4.40
2023-03-08T07:37:26.487Z,5.10
2023-03-08T07:38:00.585Z,4.88
2023-03-08T07:38:34.179Z,5.10
2023-03-08T07:39:09.310Z,4.30
2023-03-08T07:39:42.933Z,4.38
2023-03-08T07:40:18.123Z,4.00
2023-03-08T07:40:57.352Z,4.35
2023-03-08T07:41:33.791Z,4.30
2023-03-08T07:42:08.298Z,4.32
2023-03-08T07:42:43.611Z,4.60
2023-03-08T07:43:35.990Z,4.20
2023-03-08T07:44:31.436Z,4.80
2023-03-08T07:45:08.884Z,4.57
2023-03-08T07:45:44.250Z,3.72
2023-03-08T07:46:20.162Z,4.85
2023-03-08T07:46:55.415Z,4.55
2023-03-08T07:47:28.676Z,5.22
2023-03-08T07:48:04.991Z,4.60